Time;durP1;ratioP1;P1;durP2;ratioP2;P2;SDS_P1;SDS_P2;PMS_P1;PMS_P2;Temp;Humidity;BMP_temperature;BMP_pressure;BME280_temperature;BME280_humidity;BME280_pressure;Samples;Min_cycle;Max_cycle;Signal;HPM_P1;HPM_P2
2023/03/20 00:00:48;;;;;;;11.13;3.05;;;7.10;99.90;;;;;;5089143;28;20080;-81
2023/03/20 00:03:14;;;;;;;10.70;2.83;;;7.10;99.90;;;;;;5107451;27;20090;-80
2023/03/20 00:05:40;;;;;;;13.80;3.20;;;7.10;99.90;;;;;;5092313;28;20049;-81
2023/03/20 00:08:07;;;;;;;7.80;2.90;;;7.20;99.90;;;;;;5088561;28;20817;-81
2023/03/20 00:10:39;;;;;;;8.40;3.47;;;7.20;99.90;;;;;;5057862;28;20819;-81
2023/03/20 00:13:09;;;;;;;10.38;3.67;;;7.20;99.90;;;;;;5074941;28;20048;-81
2023/03/20 00:15:37;;;;;;;15.38;4.20;;;7.20;99.90;;;;;;5071691;28;20135;-81
2023/03/20 00:18:18;;;;;;;11.30;3.97;;;7.20;99.90;;;;;;5072153;28;20135;-81
2023/03/20 00:20:50;;;;;;;12.15;3.60;;;7.30;99.90;;;;;;5105962;27;20978;-81
2023/03/20 00:23:16;;;;;;;12.60;3.80;;;7.20;99.90;;;;;;5048639;28;20106;-81
2023/03/20 00:25:44;;;;;;;7.50;2.92;;;7.30;99.90;;;;;;5095816;28;20075;-81
2023/03/20 00:28:29;;;;;;;15.57;4.22;;;7.30;99.90;;;;;;5075483;28;20068;-80
2023/03/20 00:30:55;;;;;;;12.15;3.70;;;7.30;99.90;;;;;;5108689;28;20052;-81
2023/03/20 00:33:21;;;;;;;13.32;3.47;;;7.30;99.90;;;;;;5102030;28;20051;-81
2023/03/20 00:35:47;;;;;;;11.05;4.05;;;7.30;99.90;;;;;;5090597;28;20075;-79
2023/03/20 00:38:13;;;;;;;14.75;4.15;;;7.30;99.90;;;;;;5102268;28;20769;-80
2023/03/20 00:40:38;;;;;;;14.35;4.22;;;7.30;99.90;;;;;;5059909;28;20097;-80
2023/03/20 00:43:04;;;;;;;12.55;4.32;;;7.30;99.90;;;;;;5045455;28;20075;-80
2023/03/20 00:45:32;;;;;;;13.00;4.03;;;7.30;99.90;;;;;;5089755;28;20517;-81
2023/03/20 00:47:59;;;;;;;10.25;4.38;;;7.30;99.90;;;;;;5065247;28;20100;-81
2023/03/20 00:50:29;;;;;;;11.85;4.38;;;7.30;99.90;;;;;;5051430;28;20039;-81
2023/03/20 00:52:56;;;;;;;14.68;4.53;;;7.30;99.90;;;;;;5093078;28;20075;-80
2023/03/20 00:55:25;;;;;;;13.30;4.15;;;7.30;99.90;;;;;;5076000;28;20049;-80
2023/03/20 00:57:56;;;;;;;11.93;4.50;;;7.30;99.90;;;;;;5075081;28;20047;-81
2023/03/20 01:00:34;;;;;;;12.07;4.18;;;7.30;99.90;;;;;;5109147;28;20044;-81
2023/03/20 01:03:01;;;;;;;16.73;4.75;;;7.30;99.90;;;;;;5075233;28;20086;-81
2023/03/20 01:05:27;;;;;;;10.30;4.63;;;7.30;99.90;;;;;;5091684;28;20056;-81
2023/03/20 01:07:54;;;;;;;14.90;4.70;;;7.30;99.90;;;;;;5092383;28;20044;-81
2023/03/20 01:10:19;;;;;;;15.05;4.18;;;7.30;99.90;;;;;;5044296;28;20134;-80
2023/03/20 01:12:46;;;;;;;18.70;4.65;;;7.30;99.90;;;;;;5092005;28;20127;-80
2023/03/20 01:15:20;;;;;;;8.52;3.60;;;7.30;99.90;;;;;;5068264;28;20204;-80
2023/03/20 01:17:45;;;;;;;14.02;4.18;;;7.30;99.90;;;;;;5059814;28;20052;-80
2023/03/20 01:20:21;;;;;;;11.10;3.45;;;7.30;99.90;;;;;;5067563;28;20053;-79
2023/03/20 01:22:47;;;;;;;10.80;3.63;;;7.30;99.90;;;;;;5075045;28;20483;-81
2023/03/20 01:25:14;;;;;;;13.90;3.45;;;7.30;99.90;;;;;;5059397;28;20058;-81
2023/03/20 01:27:46;;;;;;;11.25;3.00;;;7.30;99.90;;;;;;5088609;28;20071;-81
2023/03/20 01:30:16;;;;;;;8.88;3.28;;;7.30;99.90;;;;;;5067120;28;20641;-80
2023/03/20 01:32:42;;;;;;;12.20;3.35;;;7.30;99.90;;;;;;5092332;28;20203;-80
2023/03/20 01:35:12;;;;;;;10.38;3.20;;;7.30;99.90;;;;;;5092730;28;20127;-80
2023/03/20 01:37:38;;;;;;;10.68;3.03;;;7.30;99.90;;;;;;5071240;28;20055;-81
2023/03/20 01:40:18;;;;;;;7.97;3.03;;;7.30;99.90;;;;;;5078305;28;20048;-80
2023/03/20 01:42:44;;;;;;;10.70;4.10;;;7.30;99.90;;;;;;5093673;28;20051;-80
2023/03/20 01:45:17;;;;;;;10.10;3.40;;;6.80;99.90;;;;;;5098525;28;20048;-80
2023/03/20 01:47:43;;;;;;;6.70;2.92;;;7.30;99.90;;;;;;5069205;28;20096;-80
2023/03/20 01:50:33;;;;;;;10.05;3.45;;;7.40;99.90;;;;;;5111300;27;20047;-80
2023/03/20 01:53:14;;;;;;;7.38;3.42;;;7.30;99.90;;;;;;5060082;28;20062;-80
2023/03/20 01:55:42;;;;;;;8.63;3.72;;;7.30;99.90;;;;;;5070785;28;20538;-80
2023/03/20 01:58:14;;;;;;;12.50;4.15;;;7.30;99.90;;;;;;5063254;28;20150;-80
2023/03/20 02:00:41;;;;;;;10.88;3.60;;;7.30;99.90;;;;;;5094882;28;20463;-82
2023/03/20 02:03:08;;;;;;;8.18;3.17;;;7.40;99.90;;;;;;5098547;28;20048;-80
2023/03/20 02:05:36;;;;;;;9.18;4.18;;;7.40;99.90;;;;;;5115290;28;20499;-81
2023/03/20 02:08:14;;;;;;;11.32;4.07;;;7.40;99.90;;;;;;5115049;28;20485;-82
2023/03/20 02:10:42;;;;;;;8.52;3.22;;;7.40;99.90;;;;;;5115366;28;20049;-81
2023/03/20 02:13:09;;;;;;;7.95;3.85;;;7.40;99.90;;;;;;5098662;28;20097;-82
2023/03/20 02:15:35;;;;;;;10.85;3.45;;;7.50;99.90;;;;;;5064638;28;20054;-81
2023/03/20 02:18:01;;;;;;;9.85;3.35;;;7.50;99.90;;;;;;5114682;28;20130;-81
2023/03/20 02:21:08;;;;;;;6.35;2.95;;;7.50;99.90;;;;;;5098228;28;20070;-81
2023/03/20 02:24:05;;;;;;;8.60;2.88;;;7.50;99.90;;;;;;5059799;28;20507;-81
2023/03/20 02:26:39;;;;;;;9.60;3.70;;;7.80;99.90;;;;;;5132016;27;20055;-81
2023/03/20 02:29:47;;;;;;;7.75;3.15;;;7.50;99.90;;;;;;5111645;28;20052;-81
2023/03/20 02:32:31;;;;;;;10.27;4.43;;;7.50;99.90;;;;;;5111214;28;20048;-81
2023/03/20 02:35:38;;;;;;;7.80;4.25;;;7.60;99.90;;;;;;5111309;28;20059;-80
2023/03/20 02:38:07;;;;;;;;;;;7.60;99.90;;;;;;5112398;28;20055;-83
2023/03/20 02:40:54;;;;;;;10.45;4.22;;;7.60;99.90;;;;;;5077545;28;19924;-83
2023/03/20 02:43:37;;;;;;;9.60;3.97;;;7.60;99.90;;;;;;5111019;28;20048;-80
2023/03/20 02:46:06;;;;;;;11.40;4.50;;;7.60;99.90;;;;;;5111960;28;20051;-81
2023/03/20 02:48:46;;;;;;;7.25;4.15;;;7.60;99.90;;;;;;5110738;28;20040;-80
2023/03/20 02:52:02;;;;;;;9.75;4.30;;;7.60;99.90;;;;;;5093993;28;20036;-80
2023/03/20 02:54:49;;;;;;;13.95;4.60;;;7.60;99.90;;;;;;5016033;28;20063;-81
2023/03/20 02:57:22;;;;;;;8.95;3.92;;;7.60;99.90;;;;;;5111104;28;20040;-80
2023/03/20 03:00:00;;;;;;;10.73;3.90;;;7.60;99.90;;;;;;5093853;28;20055;-81
2023/03/20 03:02:34;;;;;;;10.52;3.70;;;7.60;99.90;;;;;;5110798;28;20046;-81
2023/03/20 03:05:33;;;;;;;10.25;3.00;;;7.60;99.90;;;;;;5110929;28;20051;-81
2023/03/20 03:08:02;;;;;;;6.78;2.97;;;7.60;99.90;;;;;;5076115;28;20054;-81
2023/03/20 03:10:40;;;;;;;11.57;3.55;;;7.60;99.90;;;;;;5093748;28;20412;-81
2023/03/20 03:13:14;;;;;;;9.20;3.28;;;7.60;99.90;;;;;;5093850;28;20073;-80
2023/03/20 03:15:46;;;;;;;11.73;3.10;;;7.60;99.90;;;;;;5110629;28;20391;-81
2023/03/20 03:18:18;;;;;;;7.07;2.60;;;7.60;99.90;;;;;;5110036;28;20476;-81
2023/03/20 03:20:48;;;;;;;7.55;3.55;;;7.60;99.90;;;;;;5110656;28;20055;-81
2023/03/20 03:23:22;;;;;;;5.63;2.90;;;7.60;99.90;;;;;;5110428;28;20040;-81
2023/03/20 03:25:50;;;;;;;5.53;2.75;;;7.60;99.90;;;;;;5110486;28;20082;-81
2023/03/20 03:28:36;;;;;;;7.25;2.80;;;7.60;99.90;;;;;;5094210;28;20149;-81
2023/03/20 03:31:05;;;;;;;14.15;3.25;;;7.60;99.90;;;;;;5096654;28;20132;-81
2023/03/20 03:33:36;;;;;;;7.18;3.10;;;7.60;99.90;;;;;;5113710;28;20051;-81
2023/03/20 03:36:16;;;;;;;11.00;3.30;;;7.60;99.90;;;;;;5097430;28;20079;-80
2023/03/20 03:38:58;;;;;;;6.40;3.15;;;7.60;99.90;;;;;;5114097;28;20042;-81
2023/03/20 03:41:33;;;;;;;7.22;2.95;;;7.50;99.90;;;;;;5097200;28;20051;-84
2023/03/20 03:44:28;;;;;;;9.73;3.85;;;7.50;99.90;;;;;;5096936;28;20467;-82
2023/03/20 03:47:09;;;;;;;7.38;3.50;;;7.50;99.90;;;;;;5111191;28;20142;-82
2023/03/20 03:49:38;;;;;;;11.02;3.28;;;7.50;99.90;;;;;;5113945;28;20151;-81
2023/03/20 03:52:09;;;;;;;8.02;3.35;;;7.50;99.90;;;;;;5113150;28;20395;-81
2023/03/20 03:55:03;;;;;;;6.47;3.40;;;7.50;99.90;;;;;;5113512;28;20048;-82
2023/03/20 03:57:35;;;;;;;7.10;3.65;;;7.40;99.90;;;;;;5112786;28;20047;-81
2023/03/20 04:00:05;;;;;;;8.75;3.88;;;7.40;99.90;;;;;;5113263;28;20087;-82
2023/03/20 04:02:33;;;;;;;10.02;3.97;;;7.40;99.90;;;;;;5112654;28;20348;-81
2023/03/20 04:05:02;;;;;;;8.57;4.07;;;7.40;99.90;;;;;;5096704;28;20052;-81
2023/03/20 04:07:28;;;;;;;9.38;4.25;;;7.40;99.90;;;;;;5112768;28;20093;-81
2023/03/20 04:09:54;;;;;;;12.90;4.63;;;7.40;99.90;;;;;;5130302;27;20048;-82
2023/03/20 04:12:35;;;;;;;12.02;5.25;;;7.80;99.90;;;;;;5112849;28;20082;-81
2023/03/20 04:15:01;;;;;;;11.30;5.05;;;6.60;99.90;;;;;;5096207;28;20515;-81
2023/03/20 04:17:27;;;;;;;8.48;4.93;;;7.30;99.90;;;;;;5112469;28;20047;-81
2023/03/20 04:19:53;;;;;;;13.00;5.38;;;7.40;99.90;;;;;;5113375;28;20506;-81
2023/03/20 04:22:19;;;;;;;9.07;5.25;;;7.40;99.90;;;;;;5062245;28;20044;-81
2023/03/20 04:24:45;;;;;;;15.38;5.28;;;7.30;99.90;;;;;;5078867;28;20192;-82
2023/03/20 04:27:11;;;;;;;10.68;5.30;;;8.40;99.90;;;;;;5112595;28;20134;-81
2023/03/20 04:29:37;;;;;;;11.70;5.88;;;7.40;99.90;;;;;;5061840;28;20056;-81
2023/03/20 04:32:03;;;;;;;11.07;5.82;;;7.30;99.90;;;;;;5112759;28;20047;-81
2023/03/20 04:34:29;;;;;;;12.75;6.38;;;7.30;99.90;;;;;;5095776;28;20047;-81
2023/03/20 04:36:55;;;;;;;12.82;5.68;;;7.30;99.90;;;;;;5112181;28;20042;-81
2023/03/20 04:39:21;;;;;;;13.80;6.43;;;7.40;99.90;;;;;;5062145;28;20054;-81
2023/03/20 04:41:47;;;;;;;11.20;7.13;;;7.30;99.90;;;;;;5112392;28;20075;-81
2023/03/20 04:44:12;;;;;;;13.35;6.72;;;7.30;99.90;;;;;;5079203;28;20083;-82
2023/03/20 04:46:38;;;;;;;14.57;6.55;;;6.10;99.90;;;;;;5112445;28;20333;-83
2023/03/20 04:49:04;;;;;;;11.00;6.45;;;7.30;99.90;;;;;;5112336;28;20046;-83
2023/03/20 04:51:30;;;;;;;11.30;7.32;;;7.30;99.90;;;;;;5112544;28;20051;-83
2023/03/20 04:53:55;;;;;;;13.48;7.22;;;7.40;99.90;;;;;;5061933;28;20054;-83
2023/03/20 04:56:21;;;;;;;16.50;8.00;;;7.30;99.90;;;;;;5062528;28;20106;-83
2023/03/20 04:58:47;;;;;;;17.70;7.65;;;7.20;99.90;;;;;;5095634;28;20047;-83
2023/03/20 05:01:13;;;;;;;12.27;7.35;;;7.30;99.90;;;;;;5095387;28;20054;-81
2023/03/20 05:03:38;;;;;;;11.82;7.07;;;7.40;99.90;;;;;;5078569;28;20051;-81
2023/03/20 05:06:05;;;;;;;14.88;7.60;;;7.30;99.90;;;;;;5112600;28;20036;-81
2023/03/20 05:08:31;;;;;;;12.95;7.35;;;7.20;99.90;;;;;;5129218;28;20097;-81
2023/03/20 05:10:56;;;;;;;17.45;7.45;;;7.20;99.90;;;;;;5082405;28;20043;-81
2023/03/20 05:13:22;;;;;;;15.38;7.22;;;7.30;99.90;;;;;;5065663;28;20044;-81
2023/03/20 05:15:48;;;;;;;16.55;8.45;;;7.30;99.90;;;;;;5099841;28;20075;-81
2023/03/20 05:18:14;;;;;;;16.88;7.72;;;7.30;99.90;;;;;;5116881;28;20359;-82
2023/03/20 05:20:40;;;;;;;14.25;7.03;;;7.30;99.90;;;;;;5116265;28;20130;-83
2023/03/20 05:23:06;;;;;;;13.52;6.82;;;7.30;99.90;;;;;;5115797;28;20059;-80
2023/03/20 05:25:32;;;;;;;12.15;6.45;;;7.30;99.90;;;;;;5099499;28;20043;-82
2023/03/20 05:27:57;;;;;;;12.02;6.15;;;7.30;99.90;;;;;;5098908;28;20127;-82
2023/03/20 05:30:23;;;;;;;13.57;6.45;;;7.30;99.90;;;;;;5081721;28;20055;-83
2023/03/20 05:32:55;;;;;;;10.75;6.82;;;7.30;99.90;;;;;;5098656;28;20067;-81
2023/03/20 05:35:21;;;;;;;11.90;6.15;;;7.30;99.90;;;;;;5065329;28;20044;-80
2023/03/20 05:37:47;;;;;;;11.30;6.07;;;7.30;99.90;;;;;;5115397;28;20127;-81
2023/03/20 05:40:15;;;;;;;11.63;6.00;;;7.40;99.90;;;;;;5065219;28;20079;-81
2023/03/20 05:42:41;;;;;;;13.40;6.53;;;7.40;99.90;;;;;;5098290;28;20123;-81
2023/03/20 05:45:07;;;;;;;12.45;6.15;;;7.40;99.90;;;;;;5115522;28;20085;-81
2023/03/20 05:47:33;;;;;;;13.93;6.15;;;7.40;99.90;;;;;;5115533;28;20136;-82
2023/03/20 05:49:58;;;;;;;11.43;6.40;;;7.30;99.90;;;;;;5132805;27;20055;-83
2023/03/20 05:52:25;;;;;;;13.35;5.30;;;7.40;99.90;;;;;;5098587;28;20059;-83
2023/03/20 05:54:51;;;;;;;14.27;5.70;;;7.30;99.90;;;;;;5082149;28;20051;-81
2023/03/20 05:57:16;;;;;;;11.35;5.43;;;7.30;99.90;;;;;;5065423;28;20484;-81
2023/03/20 05:59:43;;;;;;;9.77;5.43;;;7.30;99.90;;;;;;5115359;28;20225;-80
2023/03/20 06:02:09;;;;;;;12.55;4.95;;;7.30;99.90;;;;;;5064694;28;20101;-82
2023/03/20 06:04:36;;;;;;;16.83;5.32;;;7.30;99.90;;;;;;5098336;28;20506;-80
2023/03/20 06:07:03;;;;;;;15.40;5.68;;;7.30;99.90;;;;;;5098479;28;20051;-80
2023/03/20 06:09:28;;;;;;;14.07;5.40;;;7.40;99.90;;;;;;5115243;28;20050;-81
2023/03/20 06:11:55;;;;;;;12.25;5.82;;;7.40;99.90;;;;;;5098390;28;20126;-83
2023/03/20 06:14:21;;;;;;;11.82;5.57;;;7.40;99.90;;;;;;5064586;28;20104;-82
2023/03/20 06:16:47;;;;;;;13.20;5.63;;;7.40;99.90;;;;;;5098424;28;20044;-84
2023/03/20 06:19:12;;;;;;;13.95;6.15;;;7.40;99.90;;;;;;5064603;28;20189;-83
2023/03/20 06:21:38;;;;;;;14.93;6.57;;;7.40;99.90;;;;;;5081513;28;20039;-82
2023/03/20 06:24:04;;;;;;;11.85;5.88;;;7.40;99.90;;;;;;5081883;28;20052;-83
2023/03/20 06:26:30;;;;;;;12.25;5.93;;;7.40;99.90;;;;;;5098769;28;20044;-83
2023/03/20 06:28:56;;;;;;;14.32;6.50;;;7.40;99.90;;;;;;5080728;28;20059;-82
2023/03/20 06:31:22;;;;;;;15.50;6.20;;;7.40;99.90;;;;;;5064175;28;20054;-84
2023/03/20 06:33:48;;;;;;;13.70;6.82;;;7.50;99.90;;;;;;5064967;28;20051;-84
2023/03/20 06:36:13;;;;;;;14.77;6.78;;;7.50;99.90;;;;;;5132169;27;20052;-84
2023/03/20 06:38:40;;;;;;;16.98;7.07;;;7.50;99.90;;;;;;5063891;28;20130;-85
2023/03/20 06:41:06;;;;;;;13.02;6.35;;;7.50;99.90;;;;;;5098034;28;20052;-83
2023/03/20 06:43:34;;;;;;;11.90;6.70;;;6.80;99.90;;;;;;5114639;28;20047;-83
2023/03/20 06:46:02;;;;;;;14.88;7.25;;;6.60;99.90;;;;;;5098296;28;20043;-83
2023/03/20 06:48:28;;;;;;;13.90;6.80;;;7.50;99.90;;;;;;5097536;28;20040;-81
2023/03/20 06:50:54;;;;;;;15.65;6.68;;;7.50;99.90;;;;;;5114594;28;20556;-82
2023/03/20 06:53:19;;;;;;;18.13;7.82;;;7.60;99.90;;;;;;5064516;28;20086;-81
2023/03/20 06:55:49;;;;;;;14.32;7.38;;;7.60;99.90;;;;;;5114533;28;20039;-82
2023/03/20 06:58:15;;;;;;;16.08;7.72;;;7.70;99.90;;;;;;5097872;28;20118;-83
2023/03/20 07:00:41;;;;;;;15.65;7.80;;;7.60;99.90;;;;;;5081239;28;20090;-81
2023/03/20 07:03:08;;;;;;;13.25;7.55;;;7.70;99.90;;;;;;5115534;28;20055;-81
2023/03/20 07:05:34;;;;;;;12.75;7.47;;;7.80;99.90;;;;;;5114616;28;20047;-82
2023/03/20 07:08:00;;;;;;;16.80;7.18;;;7.70;99.90;;;;;;5097414;28;20039;-81
2023/03/20 07:10:27;;;;;;;13.77;7.25;;;7.80;99.90;;;;;;5064324;28;20078;-82
2023/03/20 07:12:53;;;;;;;16.52;7.90;;;7.70;99.90;;;;;;5114790;28;20086;-81
2023/03/20 07:15:19;;;;;;;14.05;7.72;;;7.70;99.90;;;;;;5097009;28;20126;-82
2023/03/20 07:17:46;;;;;;;15.13;7.80;;;7.70;99.90;;;;;;5097471;28;20453;-79
2023/03/20 07:20:12;;;;;;;15.27;7.18;;;7.80;99.90;;;;;;5114460;28;20096;-79
2023/03/20 07:22:40;;;;;;;16.08;7.45;;;7.80;99.90;;;;;;5063862;28;20044;-80
2023/03/20 07:25:08;;;;;;;16.30;8.07;;;7.80;99.90;;;;;;5114967;28;20046;-79
2023/03/20 07:27:34;;;;;;;16.65;8.02;;;7.90;99.90;;;;;;5114358;28;20069;-79
2023/03/20 07:30:01;;;;;;;18.20;7.25;;;7.90;99.90;;;;;;5063412;28;20061;-79
2023/03/20 07:32:27;;;;;;;15.73;6.68;;;8.00;99.90;;;;;;5096257;28;20157;-79
2023/03/20 07:34:52;;;;;;;18.15;6.82;;;8.00;99.90;;;;;;5096756;28;20138;-79
2023/03/20 07:37:19;;;;;;;16.02;7.65;;;8.00;99.90;;;;;;5096979;28;20458;-79
2023/03/20 07:39:44;;;;;;;14.60;7.20;;;8.10;99.90;;;;;;5097642;28;20130;-79
2023/03/20 07:42:12;;;;;;;15.13;6.32;;;8.10;99.90;;;;;;5097242;28;20089;-79
2023/03/20 07:44:38;;;;;;;11.88;5.85;;;8.20;99.90;;;;;;5097230;28;20044;-79
2023/03/20 07:47:05;;;;;;;13.65;7.78;;;8.20;99.90;;;;;;5113869;28;20047;-80
2023/03/20 07:49:31;;;;;;;16.67;6.53;;;8.30;99.90;;;;;;5113820;28;20066;-80
2023/03/20 07:51:57;;;;;;;13.38;7.05;;;8.30;99.90;;;;;;5113682;28;20047;-80
2023/03/20 07:54:23;;;;;;;16.27;7.22;;;8.40;99.90;;;;;;5113362;28;20051;-80
2023/03/20 07:56:49;;;;;;;14.90;7.22;;;8.40;99.90;;;;;;5080073;28;20040;-80
2023/03/20 07:59:16;;;;;;;13.80;6.82;;;8.40;99.90;;;;;;5063544;28;20096;-80
2023/03/20 08:01:41;;;;;;;12.57;6.68;;;8.40;99.90;;;;;;5097753;28;20190;-80
2023/03/20 08:04:07;;;;;;;15.32;6.82;;;8.50;99.90;;;;;;5097001;28;20134;-80
2023/03/20 08:06:33;;;;;;;14.55;6.78;;;8.50;99.90;;;;;;5113534;28;20035;-81
2023/03/20 08:08:59;;;;;;;15.25;6.97;;;8.70;99.90;;;;;;5113048;28;20455;-81
2023/03/20 08:11:25;;;;;;;14.10;7.50;;;8.60;99.90;;;;;;5079159;28;20047;-84
2023/03/20 08:13:51;;;;;;;15.93;6.53;;;8.60;99.90;;;;;;5095768;28;20134;-83
2023/03/20 08:16:17;;;;;;;12.75;7.22;;;8.70;99.90;;;;;;5130013;27;20083;-82
2023/03/20 08:18:42;;;;;;;23.00;7.35;;;8.70;99.90;;;;;;5096827;28;20088;-83
2023/03/20 08:21:08;;;;;;;14.40;6.60;;;8.70;99.90;;;;;;5065216;28;20074;-83
2023/03/20 08:23:34;;;;;;;14.52;7.25;;;8.70;99.90;;;;;;5139019;27;20047;-82
2023/03/20 08:26:00;;;;;;;16.45;6.70;;;8.80;99.90;;;;;;5099866;28;20081;-82
2023/03/20 08:28:26;;;;;;;12.50;6.30;;;8.80;99.90;;;;;;5112387;28;20085;-83
2023/03/20 08:30:52;;;;;;;14.07;6.60;;;8.80;99.90;;;;;;5095329;28;20514;-82
2023/03/20 08:33:18;;;;;;;13.85;6.60;;;8.80;99.90;;;;;;5096602;28;20051;-84
2023/03/20 08:35:57;;;;;;;16.05;6.55;;;8.80;99.90;;;;;;5113344;28;20101;-84
2023/03/20 08:38:23;;;;;;;15.05;6.55;;;8.80;99.90;;;;;;5079428;28;20047;-83
2023/03/20 08:40:49;;;;;;;14.13;6.75;;;8.80;99.90;;;;;;5062233;28;20147;-83
2023/03/20 08:43:15;;;;;;;17.30;6.82;;;8.90;99.90;;;;;;5113664;28;20516;-83
2023/03/20 08:45:41;;;;;;;15.18;6.65;;;8.90;99.90;;;;;;5117213;28;20062;-83
2023/03/20 08:48:08;;;;;;;15.82;7.57;;;8.90;99.90;;;;;;5116664;28;20047;-83
2023/03/20 08:50:34;;;;;;;17.13;6.80;;;8.90;99.90;;;;;;5100042;28;20200;-83
2023/03/20 08:53:00;;;;;;;15.57;7.15;;;9.00;99.90;;;;;;5100193;28;20113;-83
2023/03/20 08:55:25;;;;;;;14.30;6.20;;;9.00;99.90;;;;;;5066424;28;20086;-83
2023/03/20 08:57:53;;;;;;;13.75;7.10;;;9.10;99.90;;;;;;5067069;28;20363;-83
2023/03/20 09:00:22;;;;;;;16.98;7.32;;;9.10;99.90;;;;;;5116900;28;20051;-83
2023/03/20 09:02:49;;;;;;;16.38;6.80;;;9.20;99.90;;;;;;5117417;28;20050;-82
2023/03/20 09:05:15;;;;;;;19.85;7.35;;;9.30;99.90;;;;;;5066412;28;20066;-83
2023/03/20 09:07:41;;;;;;;13.75;6.05;;;9.20;99.90;;;;;;5116607;28;20036;-83
2023/03/20 09:10:08;;;;;;;20.25;6.88;;;9.20;99.90;;;;;;5116614;28;20045;-82
2023/03/20 09:12:34;;;;;;;14.45;7.40;;;9.20;99.90;;;;;;5116578;28;20052;-83
2023/03/20 09:15:01;;;;;;;17.15;6.53;;;9.20;99.90;;;;;;5116341;28;20101;-83
2023/03/20 09:17:27;;;;;;;17.48;5.88;;;8.00;99.90;;;;;;5082595;28;20049;-83
2023/03/20 09:19:53;;;;;;;15.32;6.05;;;10.50;99.90;;;;;;5116397;28;20134;-84
2023/03/20 09:22:24;;;;;;;19.25;6.03;;;9.10;99.90;;;;;;5116222;28;20047;-83
2023/03/20 09:24:50;;;;;;;16.88;6.35;;;9.10;99.90;;;;;;5099359;28;20054;-83
2023/03/20 09:27:16;;;;;;;17.70;5.53;;;9.10;99.90;;;;;;5065727;28;20048;-83
2023/03/20 09:29:42;;;;;;;16.73;5.07;;;9.00;99.90;;;;;;5095663;28;20060;-83
2023/03/20 09:32:12;;;;;;;15.32;5.07;;;9.10;99.90;;;;;;5095782;28;20052;-83
2023/03/20 09:34:38;;;;;;;12.88;4.40;;;9.10;99.90;;;;;;5113577;28;20569;-83
2023/03/20 09:37:03;;;;;;;17.08;4.10;;;9.00;99.90;;;;;;5113110;28;20060;-83
2023/03/20 09:39:29;;;;;;;16.92;3.80;;;9.00;99.90;;;;;;5095972;28;20055;-83
2023/03/20 09:42:01;;;;;;;13.95;4.13;;;8.90;99.90;;;;;;5112884;28;20043;-83
2023/03/20 09:44:44;;;;;;;13.60;3.10;;;8.90;99.90;;;;;;5112481;28;20040;-83
2023/03/20 09:47:16;;;;;;;14.50;3.33;;;8.90;99.90;;;;;;5096295;28;20096;-83
2023/03/20 09:50:20;;;;;;;18.00;3.47;;;8.90;99.90;;;;;;5112684;28;20483;-82
2023/03/20 09:53:28;;;;;;;11.88;3.28;;;8.90;99.90;;;;;;5095272;28;20051;-83
2023/03/20 09:55:56;;;;;;;14.63;3.35;;;9.00;99.90;;;;;;5085001;28;20052;-83
2023/03/20 09:58:44;;;;;;;13.40;3.22;;;9.00;99.90;;;;;;5095476;28;20079;-82
2023/03/20 10:01:14;;;;;;;12.98;3.15;;;9.00;99.90;;;;;;5113146;28;20048;-83
2023/03/20 10:03:59;;;;;;;18.85;3.40;;;9.00;99.90;;;;;;5112296;28;20048;-83
2023/03/20 10:06:25;;;;;;;11.45;2.75;;;8.90;99.90;;;;;;5112656;28;20052;-83
2023/03/20 10:08:51;;;;;;;18.92;3.75;;;8.90;99.90;;;;;;5095325;28;20077;-83
2023/03/20 10:11:48;;;;;;;16.10;3.85;;;8.90;99.90;;;;;;5112816;28;20380;-83
2023/03/20 10:14:28;;;;;;;10.18;3.20;;;8.90;99.90;;;;;;5079512;28;20388;-83
2023/03/20 10:17:18;;;;;;;17.27;3.35;;;9.00;99.90;;;;;;5128401;27;20052;-83
2023/03/20 10:19:56;;;;;;;13.35;3.38;;;9.00;99.90;;;;;;5112880;28;20059;-83
2023/03/20 10:22:35;;;;;;;15.95;3.75;;;9.00;99.90;;;;;;5111737;28;20047;-83
2023/03/20 10:25:21;;;;;;;14.27;3.40;;;9.00;99.90;;;;;;5111578;28;20040;-83
2023/03/20 10:28:02;;;;;;;17.00;3.95;;;9.00;99.90;;;;;;5095059;28;20062;-83
2023/03/20 10:30:42;;;;;;;14.73;3.20;;;9.00;99.90;;;;;;5111400;28;20095;-83
2023/03/20 10:33:17;;;;;;;18.05;3.60;;;9.00;99.90;;;;;;5096013;28;20055;-83
2023/03/20 10:36:00;;;;;;;14.80;3.85;;;9.00;99.90;;;;;;5095016;28;20051;-83
2023/03/20 10:38:50;;;;;;;12.40;2.80;;;9.00;99.90;;;;;;5112242;28;20083;-83
2023/03/20 10:41:20;;;;;;;14.30;3.13;;;9.00;99.90;;;;;;5111787;28;20056;-83
2023/03/20 10:43:50;;;;;;;16.63;3.28;;;8.90;99.90;;;;;;5111751;28;20113;-83
2023/03/20 10:46:22;;;;;;;15.57;2.95;;;8.80;99.90;;;;;;5111816;28;20050;-92
2023/03/20 10:49:01;;;;;;;17.90;3.67;;;8.80;99.90;;;;;;5111100;28;20044;-82
2023/03/20 10:51:38;;;;;;;16.38;3.53;;;8.70;99.90;;;;;;5112335;28;20109;-83
2023/03/20 10:54:12;;;;;;;13.23;3.53;;;9.30;99.90;;;;;;5111189;28;20051;-83
2023/03/20 10:56:45;;;;;;;18.25;3.72;;;8.60;99.90;;;;;;5110906;28;20074;-82
2023/03/20 10:59:43;;;;;;;10.85;2.80;;;8.70;99.90;;;;;;5110826;28;20199;-82
2023/03/20 11:02:11;;;;;;;11.50;3.40;;;8.50;99.90;;;;;;5062696;28;20044;-82
2023/03/20 11:04:37;;;;;;;16.80;4.35;;;8.60;99.90;;;;;;5111109;28;20461;-82
2023/03/20 11:07:25;;;;;;;12.85;3.75;;;8.60;99.90;;;;;;5109502;28;20143;-83
2023/03/20 11:10:03;;;;;;;12.25;3.60;;;8.60;99.90;;;;;;5110638;28;20044;-82
2023/03/20 11:12:36;;;;;;;13.32;4.53;;;8.60;99.90;;;;;;5110635;28;20048;-82
2023/03/20 11:15:21;;;;;;;13.55;4.15;;;8.60;99.90;;;;;;5111079;28;20040;-85
2023/03/20 11:17:53;;;;;;;11.15;3.55;;;8.60;99.90;;;;;;5110788;28;20060;-85
2023/03/20 11:20:19;;;;;;;9.30;4.20;;;8.70;99.90;;;;;;5094016;28;20055;-83
2023/03/20 11:22:47;;;;;;;11.13;3.33;;;8.70;99.90;;;;;;5110528;28;20044;-84
2023/03/20 11:25:48;;;;;;;8.65;3.28;;;8.80;99.90;;;;;;5078327;28;20039;-85
2023/03/20 11:28:30;;;;;;;6.72;3.25;;;8.80;99.90;;;;;;5062819;28;20051;-84
2023/03/20 11:31:01;;;;;;;8.32;3.08;;;8.70;99.90;;;;;;5098152;28;20143;-83
2023/03/20 11:33:28;;;;;;;7.32;3.28;;;8.70;99.90;;;;;;5114262;28;20117;-83
2023/03/20 11:35:56;;;;;;;5.97;2.80;;;8.70;99.90;;;;;;5079748;28;20097;-85
2023/03/20 11:38:28;;;;;;;7.32;3.35;;;8.70;99.90;;;;;;5114088;28;20047;-84
2023/03/20 11:40:54;;;;;;;7.85;3.50;;;8.70;99.90;;;;;;5114299;28;20039;-84
2023/03/20 11:43:26;;;;;;;6.22;2.78;;;8.70;99.90;;;;;;5114511;28;20127;-84
2023/03/20 11:45:59;;;;;;;5.70;3.22;;;8.70;99.90;;;;;;5096332;28;20050;-83
2023/03/20 11:48:46;;;;;;;5.55;3.15;;;8.70;99.90;;;;;;5113735;28;20100;-82
2023/03/20 11:51:18;;;;;;;10.20;3.63;;;8.70;99.90;;;;;;5113129;28;20043;-83
2023/03/20 11:53:47;;;;;;;10.15;4.22;;;8.60;99.90;;;;;;5114198;28;20459;-82
2023/03/20 11:56:24;;;;;;;7.32;3.65;;;8.70;99.90;;;;;;5113519;28;20043;-82
2023/03/20 11:59:08;;;;;;;7.32;3.75;;;8.60;99.90;;;;;;5114079;28;20043;-83
2023/03/20 12:01:45;;;;;;;10.15;3.72;;;8.60;99.90;;;;;;5096324;28;20131;-82
2023/03/20 12:04:36;;;;;;;9.25;4.00;;;8.60;99.90;;;;;;5113427;28;20047;-82
2023/03/20 12:07:29;;;;;;;7.70;3.90;;;8.60;99.90;;;;;;5113355;28;20039;-83
2023/03/20 12:10:12;;;;;;;6.93;3.60;;;8.60;99.90;;;;;;5114279;28;20079;-82
2023/03/20 12:12:56;;;;;;;10.05;3.55;;;8.60;99.90;;;;;;5096523;28;20035;-82
2023/03/20 12:15:38;;;;;;;8.13;3.88;;;8.60;99.90;;;;;;5096826;28;20043;-82
2023/03/20 12:18:19;;;;;;;8.82;4.03;;;8.60;99.90;;;;;;5112163;28;20047;-82
2023/03/20 12:21:03;;;;;;;6.50;4.00;;;8.60;99.90;;;;;;5113562;28;20047;-82
2023/03/20 12:24:00;;;;;;;8.50;4.28;;;8.60;99.90;;;;;;5113887;28;20075;-83
2023/03/20 12:26:43;;;;;;;8.07;4.35;;;8.60;99.90;;;;;;5092127;28;20058;-83
2023/03/20 12:29:29;;;;;;;7.63;4.18;;;8.70;99.90;;;;;;5112858;28;20051;-83
2023/03/20 12:32:22;;;;;;;9.20;4.25;;;8.70;99.90;;;;;;5096575;28;20058;-83
2023/03/20 12:34:56;;;;;;;6.40;4.20;;;9.10;99.90;;;;;;5078462;28;20059;-83
2023/03/20 12:37:22;;;;;;;7.40;4.20;;;7.80;99.90;;;;;;5113304;28;20043;-83
2023/03/20 12:39:54;;;;;;;9.55;4.78;;;8.70;99.90;;;;;;5112997;28;20055;-83
2023/03/20 12:43:01;;;;;;;7.70;4.55;;;8.80;99.90;;;;;;5095850;28;20051;-85
2023/03/20 12:45:55;;;;;;;9.63;5.18;;;9.70;99.90;;;;;;5079243;28;20046;-83
2023/03/20 12:48:47;;;;;;;9.25;4.57;;;8.70;99.90;;;;;;5079242;28;20532;-83
2023/03/20 12:51:25;;;;;;;8.43;4.88;;;8.70;99.90;;;;;;5112555;28;20043;-83
2023/03/20 12:54:20;;;;;;;10.20;5.07;;;8.70;99.90;;;;;;5113687;28;20054;-84
2023/03/20 12:57:01;;;;;;;10.10;5.30;;;8.70;99.90;;;;;;5075306;28;20134;-81
2023/03/20 12:59:44;;;;;;;10.52;5.40;;;8.60;99.90;;;;;;5112545;28;20507;-82
2023/03/20 13:02:29;;;;;;;11.00;5.93;;;8.60;99.90;;;;;;5112685;28;20506;-81
2023/03/20 13:05:21;;;;;;;9.90;5.70;;;8.60;99.90;;;;;;5113401;28;20467;-82
2023/03/20 13:08:07;;;;;;;11.63;4.97;;;8.60;99.90;;;;;;5070402;28;20047;-81
2023/03/20 13:10:40;;;;;;;8.80;5.05;;;8.60;99.90;;;;;;5096569;28;20120;-81
2023/03/20 13:13:12;;;;;;;7.63;4.90;;;8.70;99.90;;;;;;5112809;28;20491;-82
2023/03/20 13:16:10;;;;;;;6.50;4.43;;;8.60;99.90;;;;;;5113365;28;20044;-81